Time;durP1;ratioP1;P1;durP2;ratioP2;P2;SDS_P1;SDS_P2;PMS_P1;PMS_P2;Temp;Humidity;BMP_temperature;BMP_pressure;BME280_temperature;BME280_humidity;BME280_pressure;Samples;Min_cycle;Max_cycle;Signal;HPM_P1;HPM_P2
2022/09/10 00:01:53;;;;;;;12.10;8.50;;;;;;;13.09;100.00;100299.50;7394135;19;20409;-53
2022/09/10 00:04:22;;;;;;;16.60;8.33;;;;;;;13.00;100.00;100293.22;7397118;19;20941;-51
2022/09/10 00:06:54;;;;;;;14.87;8.60;;;;;;;13.11;100.00;100294.34;7393596;19;20779;-50
2022/09/10 00:09:24;;;;;;;12.60;8.17;;;;;;;13.01;100.00;100292.38;7398957;19;20387;-55
2022/09/10 00:11:53;;;;;;;15.97;9.37;;;;;;;13.22;100.00;100300.66;7396394;19;20469;-52
2022/09/10 00:14:24;;;;;;;13.10;8.63;;;;;;;13.12;100.00;100292.66;7396256;19;20943;-53
2022/09/10 00:16:54;;;;;;;14.50;9.40;;;;;;;13.08;100.00;100295.16;7388242;19;20795;-53
2022/09/10 00:19:23;;;;;;;13.20;9.40;;;;;;;13.22;100.00;100290.31;7398621;19;20500;-52
2022/09/10 00:21:55;;;;;;;12.43;9.80;;;;;;;13.37;100.00;100289.78;7394932;19;20429;-59
2022/09/10 00:24:25;;;;;;;14.43;8.73;;;;;;;13.40;100.00;100288.09;7397996;19;20950;-56
2022/09/10 00:26:54;;;;;;;20.07;9.47;;;;;;;13.22;100.00;100282.53;7393454;19;20452;-55
2022/09/10 00:29:24;;;;;;;11.37;8.37;;;;;;;13.10;100.00;100279.66;7398375;19;20418;-54
2022/09/10 00:31:53;;;;;;;12.70;9.20;;;;;;;13.18;100.00;100274.66;7393377;19;20784;-55
2022/09/10 00:34:25;;;;;;;15.90;9.33;;;;;;;13.12;100.00;100269.34;7395954;19;20795;-52
2022/09/10 00:36:58;;;;;;;13.27;8.57;;;;;;;13.05;100.00;100269.19;7392393;19;20413;-52
2022/09/10 00:39:27;;;;;;;10.47;8.37;;;;;;;13.06;100.00;100268.34;7398018;19;20394;-56
2022/09/10 00:41:57;;;;;;;10.87;7.97;;;;;;;13.04;100.00;100272.63;7392052;19;20418;-50
2022/09/10 00:44:56;;;;;;;16.27;8.77;;;;;;;13.08;100.00;100271.84;7396078;19;20419;-58
2022/09/10 00:47:28;;;;;;;11.43;8.10;;;;;;;13.10;100.00;100274.47;7396923;19;20432;-55
2022/09/10 00:50:00;;;;;;;13.30;8.80;;;;;;;13.03;100.00;100276.03;7393059;19;20431;-57
2022/09/10 00:52:32;;;;;;;12.20;8.30;;;;;;;13.15;100.00;100279.75;7397615;19;20391;-51
2022/09/10 00:55:09;;;;;;;10.93;7.70;;;;;;;13.18;100.00;100282.44;7391521;19;20417;-50
2022/09/10 00:57:39;;;;;;;10.20;7.70;;;;;;;13.14;100.00;100278.00;7397637;19;20410;-51
2022/09/10 01:00:12;;;;;;;12.87;9.03;;;;;;;13.04;100.00;100288.16;7392171;19;20447;-54
2022/09/10 01:02:42;;;;;;;11.03;8.13;;;;;;;13.06;100.00;100291.66;7396512;19;20384;-48
2022/09/10 01:05:12;;;;;;;13.27;8.50;;;;;;;13.21;100.00;100288.56;7390094;19;20402;-55
2022/09/10 01:07:44;;;;;;;8.70;7.57;;;;;;;13.20;100.00;100285.94;7395824;19;20383;-56
2022/09/10 01:10:17;;;;;;;14.27;8.07;;;;;;;13.14;100.00;100291.84;7391310;19;20415;-52
2022/09/10 01:13:18;;;;;;;9.60;7.90;;;;;;;13.21;100.00;100287.69;7396133;19;20856;-52
2022/09/10 01:15:51;;;;;;;15.37;8.27;;;;;;;13.28;100.00;100289.56;7382909;19;20774;-52
2022/09/10 01:18:29;;;;;;;10.47;8.70;;;;;;;13.37;100.00;100287.19;7390429;19;20390;-54
2022/09/10 01:21:21;;;;;;;11.20;8.17;;;;;;;13.34;100.00;100284.53;7391066;19;20414;-53
2022/09/10 01:24:35;;;;;;;12.20;8.20;;;;;;;13.33;100.00;100293.13;7395971;19;20870;-56
2022/09/10 01:27:32;;;;;;;10.50;8.20;;;;;;;13.20;100.00;100291.09;7387367;19;21298;-57
2022/09/10 01:30:08;;;;;;;12.13;8.20;;;;;;;13.17;100.00;100291.91;7391704;19;20388;-51
2022/09/10 01:32:46;;;;;;;13.83;8.77;;;;;;;13.27;100.00;100294.72;7395625;19;20425;-57
2022/09/10 01:35:18;;;;;;;9.57;7.40;;;;;;;13.28;100.00;100294.75;7386918;19;20434;-54
2022/09/10 01:37:50;;;;;;;12.63;7.33;;;;;;;13.08;100.00;100296.88;7396274;19;20409;-51
2022/09/10 01:40:27;;;;;;;10.83;7.80;;;;;;;13.11;100.00;100289.16;7391023;19;20802;-52
2022/09/10 01:43:01;;;;;;;10.93;7.50;;;;;;;13.30;100.00;100293.09;7395421;19;20394;-52
2022/09/10 01:45:36;;;;;;;11.23;8.33;;;;;;;13.39;100.00;100286.34;7386556;19;20426;-51
2022/09/10 01:48:22;;;;;;;15.53;7.70;;;;;;;13.18;100.00;100282.44;7396523;19;20510;-52
2022/09/10 01:50:57;;;;;;;10.30;7.20;;;;;;;13.44;100.00;100288.19;7389979;19;20432;-50
2022/09/10 01:53:41;;;;;;;13.43;8.67;;;;;;;13.32;100.00;100288.81;7394662;19;20383;-52
2022/09/10 01:56:20;;;;;;;12.90;7.83;;;;;;;13.14;100.00;100284.09;7389886;19;20658;-54
2022/09/10 01:58:53;;;;;;;14.43;7.80;;;;;;;13.19;100.00;100292.81;7395395;19;20764;-50
2022/09/10 02:01:27;;;;;;;10.00;7.67;;;;;;;13.23;100.00;100291.19;7370894;19;20435;-50
2022/09/10 02:03:59;;;;;;;11.20;7.80;;;;;;;13.31;100.00;100289.66;7394391;19;20416;-47
2022/09/10 02:06:31;;;;;;;11.83;8.03;;;;;;;13.24;100.00;100291.22;7392976;19;20974;-52
2022/09/10 02:09:01;;;;;;;11.60;7.97;;;;;;;13.45;100.00;100292.56;7395167;19;20413;-49
2022/09/10 02:11:30;;;;;;;9.03;8.00;;;;;;;13.42;100.00;100287.28;7390729;19;20474;-54
2022/09/10 02:14:00;;;;;;;12.33;8.43;;;;;;;13.49;100.00;100283.16;7395794;19;20409;-49
2022/09/10 02:16:36;;;;;;;9.27;7.83;;;;;;;13.47;100.00;100287.44;7385752;19;20433;-50
2022/09/10 02:19:06;;;;;;;10.07;7.70;;;;;;;13.42;100.00;100276.94;7394588;19;20404;-56
2022/09/10 02:21:37;;;;;;;13.13;8.70;;;;;;;13.48;100.00;100276.22;7390335;19;20796;-56
2022/09/10 02:24:08;;;;;;;9.60;7.77;;;;;;;13.33;100.00;100272.41;7394083;19;20453;-52
2022/09/10 02:26:41;;;;;;;12.27;8.33;;;;;;;13.23;100.00;100270.47;7389748;19;20409;-49
2022/09/10 02:29:12;;;;;;;11.00;7.97;;;;;;;13.41;100.00;100267.41;7394199;19;20407;-52
2022/09/10 02:31:46;;;;;;;11.10;8.30;;;;;;;13.37;100.00;100263.88;7389687;19;20447;-54
2022/09/10 02:34:16;;;;;;;12.03;7.90;;;;;;;13.35;100.00;100265.53;7391871;19;20415;-56
2022/09/10 02:36:45;;;;;;;11.50;7.93;;;;;;;13.35;100.00;100267.28;7386862;19;20444;-52
2022/09/10 02:39:15;;;;;;;12.13;8.20;;;;;;;13.43;100.00;100270.91;7393823;19;20415;-50
2022/09/10 02:41:46;;;;;;;14.80;8.10;;;;;;;13.49;100.00;100268.47;7389292;19;20435;-57
2022/09/10 02:44:16;;;;;;;10.57;8.27;;;;;;;13.49;100.00;100267.63;7392873;19;20411;-56
2022/09/10 02:46:48;;;;;;;10.47;8.03;;;;;;;13.33;100.00;100276.75;7385581;19;20419;-51
2022/09/10 02:49:17;;;;;;;13.50;8.50;;;;;;;13.40;100.00;100276.03;7393843;19;20382;-50
2022/09/10 02:51:47;;;;;;;12.90;8.30;;;;;;;13.48;100.00;100273.63;7389009;19;20819;-51
2022/09/10 02:54:18;;;;;;;10.87;7.90;;;;;;;13.36;100.00;100269.91;7392064;19;20417;-56
2022/09/10 02:56:49;;;;;;;9.93;8.53;;;;;;;13.32;100.00;100269.78;7388030;19;20424;-54
2022/09/10 02:59:19;;;;;;;14.80;8.17;;;;;;;13.35;100.00;100269.88;7390453;19;20419;-54
2022/09/10 03:01:53;;;;;;;13.20;8.17;;;;;;;13.35;100.00;100269.88;7386271;19;20437;-51
2022/09/10 03:04:22;;;;;;;10.60;8.33;;;;;;;13.24;100.00;100272.22;7388862;19;20445;-52
2022/09/10 03:06:53;;;;;;;11.90;7.60;;;;;;;13.16;100.00;100278.91;7385424;19;20425;-57
2022/09/10 03:09:23;;;;;;;11.03;8.23;;;;;;;13.37;100.00;100281.13;7390935;19;20406;-56
2022/09/10 03:11:52;;;;;;;12.77;8.40;;;;;;;13.32;100.00;100281.03;7385431;19;20407;-57
2022/09/10 03:14:23;;;;;;;11.20;7.40;;;;;;;13.22;100.00;100284.25;7390313;19;20407;-55
2022/09/10 03:16:55;;;;;;;14.03;7.90;;;;;;;13.28;100.00;100279.19;7373959;19;20443;-55
2022/09/10 03:19:25;;;;;;;16.20;7.43;;;;;;;13.55;100.00;100290.19;7390915;19;20420;-48
2022/09/10 03:21:56;;;;;;;10.10;7.77;;;;;;;13.75;100.00;100285.44;7387838;19;20419;-51
2022/09/10 03:24:25;;;;;;;9.13;7.60;;;;;;;14.12;100.00;100274.94;7389189;19;20443;-51
2022/09/10 03:26:55;;;;;;;10.17;6.53;;;;;;;13.90;100.00;100264.16;7374255;19;20415;-51
2022/09/10 03:29:25;;;;;;;10.93;7.27;;;;;;;13.90;100.00;100244.25;7393633;19;20391;-53
2022/09/10 03:31:57;;;;;;;8.13;6.37;;;;;;;13.99;100.00;100246.16;7393609;19;20442;-54
2022/09/10 03:34:26;;;;;;;9.70;6.60;;;;;;;14.00;100.00;100234.09;7396732;19;20407;-52
2022/09/10 03:36:56;;;;;;;12.03;6.70;;;;;;;14.22;100.00;100229.28;7390022;19;20437;-54
2022/09/10 03:39:25;;;;;;;15.10;8.40;;;;;;;14.14;100.00;100216.16;7398315;19;20404;-51
2022/09/10 03:41:55;;;;;;;9.77;6.37;;;;;;;14.06;100.00;100218.66;7393599;19;20494;-54
2022/09/10 03:44:24;;;;;;;8.80;6.80;;;;;;;13.67;100.00;100220.47;7396674;19;20435;-51
2022/09/10 03:46:54;;;;;;;10.80;5.70;;;;;;;13.87;100.00;100225.19;7388736;19;20431;-50
2022/09/10 03:49:26;;;;;;;11.90;6.63;;;;;;;13.71;100.00;100231.78;7403721;19;20629;-50
2022/09/10 03:51:55;;;;;;;8.33;6.30;;;;;;;13.54;100.00;100229.69;7395787;19;20469;-51
2022/09/10 03:54:25;;;;;;;11.30;6.47;;;;;;;13.50;100.00;100244.31;7397575;19;20439;-59
2022/09/10 03:56:54;;;;;;;10.73;6.20;;;;;;;13.59;100.00;100251.41;7392580;19;20952;-51
2022/09/10 03:59:24;;;;;;;10.60;7.80;;;;;;;13.60;100.00;100252.28;7399445;19;20999;-57
2022/09/10 04:01:53;;;;;;;11.67;6.73;;;;;;;13.46;100.00;100252.00;7398314;19;20502;-55
2022/09/10 04:04:25;;;;;;;9.00;6.23;;;;;;;13.32;100.00;100260.31;7397993;19;20438;-53
2022/09/10 04:06:55;;;;;;;11.93;7.13;;;;;;;13.22;100.00;100260.94;7393973;19;20440;-51
2022/09/10 04:09:24;;;;;;;9.30;7.30;;;;;;;13.13;100.00;100274.53;7398906;19;20410;-50
2022/09/10 04:11:54;;;;;;;12.90;7.03;;;;;;;13.19;100.00;100284.19;7397706;19;20425;-51
2022/09/10 04:14:23;;;;;;;8.60;7.07;;;;;;;13.30;100.00;100289.59;7401449;19;20438;-51
2022/09/10 04:16:53;;;;;;;9.53;6.83;;;;;;;13.28;100.00;100299.06;7387758;19;20455;-51
2022/09/10 04:19:22;;;;;;;8.60;7.40;;;;;;;13.39;100.00;100296.72;7403201;19;20395;-53
2022/09/10 04:21:56;;;;;;;10.70;7.17;;;;;;;13.13;100.00;100295.25;7393647;19;20854;-52
2022/09/10 04:24:26;;;;;;;11.07;6.70;;;;;;;13.18;100.00;100297.97;7397570;19;20435;-50
2022/09/10 04:26:56;;;;;;;8.30;6.77;;;;;;;13.25;100.00;100305.06;7384564;19;20446;-50
2022/09/10 04:29:25;;;;;;;10.90;7.50;;;;;;;13.30;100.00;100308.63;7398469;19;20388;-57
2022/09/10 04:31:56;;;;;;;75.90;46.90;;;;;;;13.53;100.00;100310.88;7393226;19;20414;-51
2022/09/10 04:34:26;;;;;;;21.57;15.57;;;;;;;13.28;100.00;100305.09;7396192;19;20456;-49
2022/09/10 04:36:58;;;;;;;94.67;57.40;;;;;;;13.52;100.00;100309.16;7391603;19;20455;-55
2022/09/10 04:39:27;;;;;;;27.93;19.20;;;;;;;13.89;100.00;100309.94;7398202;19;20407;-50
2022/09/10 04:41:57;;;;;;;56.73;36.17;;;;;;;14.19;100.00;100297.56;7393198;19;20409;-47
2022/09/10 04:44:28;;;;;;;25.13;16.37;;;;;;;13.90;100.00;100295.28;7395848;19;20414;-52
2022/09/10 04:46:57;;;;;;;29.00;20.80;;;;;;;13.98;100.00;100285.91;7380037;19;20469;-55
2022/09/10 04:49:27;;;;;;;25.63;19.40;;;;;;;14.13;100.00;100277.56;7397773;19;20948;-53
2022/09/10 04:51:59;;;;;;;21.27;15.60;;;;;;;14.33;100.00;100264.09;7383608;19;20468;-54
2022/09/10 04:54:28;;;;;;;14.73;9.57;;;;;;;14.11;100.00;100255.91;7395459;19;20430;-49
2022/09/10 04:56:58;;;;;;;14.07;9.77;;;;;;;14.29;100.00;100257.09;7379111;19;20439;-54
2022/09/10 04:59:28;;;;;;;9.90;7.70;;;;;;;14.18;100.00;100255.19;7395604;19;20740;-57
2022/09/10 05:01:57;;;;;;;6.30;5.60;;;;;;;13.91;100.00;100258.97;7362237;19;20447;-58
2022/09/10 05:04:27;;;;;;;9.07;6.50;;;;;;;13.47;100.00;100274.47;7395299;19;20439;-52
2022/09/10 05:07:00;;;;;;;13.17;5.93;;;;;;;13.27;100.00;100282.63;7383586;19;20784;-50
2022/09/10 05:09:30;;;;;;;15.57;10.20;;;;;;;13.38;100.00;100290.66;7396922;19;20413;-52
2022/09/10 05:12:00;;;;;;;17.13;11.17;;;;;;;13.52;100.00;100314.31;7360496;19;20424;-54
2022/09/10 05:14:29;;;;;;;13.67;9.03;;;;;;;13.43;100.00;100308.91;7395001;19;20417;-55
2022/09/10 05:16:58;;;;;;;10.07;8.40;;;;;;;13.51;100.00;100317.75;7390588;19;20883;-52
2022/09/10 05:19:28;;;;;;;13.00;10.07;;;;;;;13.47;100.00;100321.13;7396714;19;20389;-51
2022/09/10 05:22:00;;;;;;;10.10;8.43;;;;;;;13.35;100.00;100329.47;7367810;19;20419;-50
2022/09/10 05:24:33;;;;;;;11.43;8.43;;;;;;;13.18;100.00;100329.06;7394764;19;20413;-53
2022/09/10 05:27:02;;;;;;;12.57;9.37;;;;;;;13.10;100.00;100332.34;7384390;19;20427;-56
2022/09/10 05:29:31;;;;;;;11.90;8.87;;;;;;;13.28;100.00;100336.19;7396429;19;20400;-54
2022/09/10 05:32:02;;;;;;;13.30;8.80;;;;;;;13.19;100.00;100336.84;7382944;19;20419;-54
2022/09/10 05:34:31;;;;;;;19.53;9.03;;;;;;;13.09;100.00;100340.94;7394267;19;20451;-52
2022/09/10 05:37:04;;;;;;;10.63;8.80;;;;;;;13.16;100.00;100346.25;7381158;19;21004;-50
2022/09/10 05:39:34;;;;;;;12.17;9.00;;;;;;;13.12;100.00;100357.41;7396168;19;20415;-52
2022/09/10 05:42:03;;;;;;;11.53;8.40;;;;;;;13.28;100.00;100356.06;7381820;19;20417;-53
2022/09/10 05:44:33;;;;;;;15.40;9.07;;;;;;;13.23;100.00;100349.03;7393905;19;20412;-58
2022/09/10 05:47:02;;;;;;;10.83;7.80;;;;;;;13.24;100.00;100355.13;7379081;19;20465;-57
2022/09/10 05:49:31;;;;;;;14.27;10.20;;;;;;;13.27;100.00;100364.69;7395263;19;20409;-50
2022/09/10 05:52:04;;;;;;;14.50;9.23;;;;;;;13.34;100.00;100363.97;7381749;19;20459;-49
2022/09/10 05:54:34;;;;;;;12.90;10.17;;;;;;;13.26;100.00;100368.97;7393912;19;20430;-51
2022/09/10 05:57:04;;;;;;;12.10;9.83;;;;;;;13.30;100.00;100363.03;7380230;19;20448;-50
2022/09/10 05:59:33;;;;;;;15.90;9.80;;;;;;;13.44;100.00;100368.53;7395538;19;20392;-54
2022/09/10 06:02:02;;;;;;;12.70;9.70;;;;;;;13.46;100.00;100368.59;7390668;19;20431;-55
2022/09/10 06:04:32;;;;;;;13.13;9.73;;;;;;;13.51;100.00;100369.59;7393695;19;20417;-57
2022/09/10 06:07:04;;;;;;;11.50;8.93;;;;;;;13.36;100.00;100365.78;7382978;19;20436;-48
2022/09/10 06:09:34;;;;;;;15.53;10.43;;;;;;;13.28;100.00;100374.19;7395189;19;20372;-52
2022/09/10 06:12:05;;;;;;;27.10;17.13;;;;;;;13.86;100.00;100381.59;7380918;19;20421;-58
2022/09/10 06:14:35;;;;;;;16.23;10.70;;;;;;;13.89;100.00;100382.56;7393006;19;20409;-52
2022/09/10 06:17:04;;;;;;;19.60;11.60;;;;;;;13.74;100.00;100377.03;7391725;19;20485;-54
2022/09/10 06:19:33;;;;;;;27.40;15.50;;;;;;;13.43;100.00;100371.09;7394636;19;20923;-50
2022/09/10 06:22:05;;;;;;;14.43;10.53;;;;;;;13.53;100.00;100390.38;7392035;19;20813;-57
2022/09/10 06:24:35;;;;;;;19.27;10.53;;;;;;;13.65;100.00;100393.25;7393024;19;20443;-51
2022/09/10 06:27:05;;;;;;;43.83;22.13;;;;;;;13.67;100.00;100399.34;7389246;19;20800;-55
2022/09/10 06:29:35;;;;;;;19.10;12.47;;;;;;;13.76;100.00;100401.28;7394547;19;20378;-57
2022/09/10 06:32:05;;;;;;;12.27;9.23;;;;;;;13.82;100.00;100398.81;7389813;19;20775;-49
2022/09/10 06:34:34;;;;;;;20.50;13.13;;;;;;;13.73;100.00;100416.75;7392594;19;20435;-56
2022/09/10 06:37:06;;;;;;;23.17;14.33;;;;;;;13.71;100.00;100419.31;7387952;19;20504;-55
2022/09/10 06:39:36;;;;;;;17.37;10.70;;;;;;;13.82;100.00;100424.75;7394184;19;20918;-54
2022/09/10 06:42:06;;;;;;;12.27;9.57;;;;;;;13.70;100.00;100427.91;7389392;19;20424;-54
2022/09/10 06:44:35;;;;;;;14.07;10.30;;;;;;;13.77;100.00;100434.13;7392235;19;20415;-51
2022/09/10 06:47:05;;;;;;;14.30;10.33;;;;;;;13.89;100.00;100438.72;7388060;19;20418;-55
2022/09/10 06:49:54;;;;;;;17.27;12.90;;;;;;;13.91;100.00;100448.28;7389799;19;20386;-56
2022/09/10 06:52:26;;;;;;;85.47;50.53;;;;;;;14.05;100.00;100450.31;7395223;19;20422;-52
2022/09/10 06:54:56;;;;;;;24.33;15.90;;;;;;;13.87;100.00;100456.84;7387662;19;20438;-59
2022/09/10 06:57:28;;;;;;;33.20;23.83;;;;;;;14.21;100.00;100472.31;7392238;19;20426;-53
2022/09/10 06:59:57;;;;;;;26.33;19.57;;;;;;;14.42;100.00;100471.88;7389087;19;20784;-51
2022/09/10 07:02:27;;;;;;;16.23;11.30;;;;;;;14.49;100.00;100478.09;7392543;19;20413;-55
2022/09/10 07:04:56;;;;;;;13.13;9.73;;;;;;;14.39;100.00;100491.69;7360525;19;20420;-50
2022/09/10 07:07:28;;;;;;;16.77;10.20;;;;;;;14.34;100.00;100504.59;7391226;19;20407;-56
2022/09/10 07:09:57;;;;;;;10.77;9.27;;;;;;;14.57;100.00;100520.66;7358646;19;20950;-54
2022/09/10 07:12:27;;;;;;;7.00;5.93;;;;;;;14.51;100.00;100537.84;7390754;19;20778;-51
2022/09/10 07:14:56;;;;;;;8.30;7.47;;;;;;;14.39;100.00;100570.44;7386189;19;20435;-52
2022/09/10 07:17:26;;;;;;;8.07;6.83;;;;;;;14.21;100.00;100604.63;7391946;19;20381;-53
2022/09/10 07:20:00;;;;;;;8.10;7.30;;;;;;;14.33;100.00;100632.59;7388666;19;20383;-57
2022/09/10 07:22:32;;;;;;;8.13;6.80;;;;;;;14.47;100.00;100651.09;7392349;19;20403;-52
2022/09/10 07:25:01;;;;;;;9.40;6.87;;;;;;;14.57;100.00;100655.66;7378216;19;20437;-54
2022/09/10 07:27:32;;;;;;;15.57;7.90;;;;;;;14.59;100.00;100668.69;7392384;19;20387;-59
2022/09/10 07:30:01;;;;;;;9.70;8.00;;;;;;;14.60;100.00;100675.63;7388479;19;20403;-56
2022/09/10 07:32:34;;;;;;;8.50;7.60;;;;;;;14.75;100.00;100679.44;7392257;19;20412;-57
2022/09/10 07:35:03;;;;;;;10.40;7.17;;;;;;;14.65;100.00;100676.59;7386620;19;20506;-54
2022/09/10 07:37:35;;;;;;;9.80;7.50;;;;;;;14.70;100.00;100684.50;7391389;19;20384;-56
2022/09/10 07:40:06;;;;;;;9.13;8.13;;;;;;;14.92;100.00;100685.06;7387759;19;20903;-54
2022/09/10 07:42:36;;;;;;;10.10;7.60;;;;;;;14.97;100.00;100693.78;7391879;19;20396;-51
2022/09/10 07:45:06;;;;;;;12.33;7.90;;;;;;;15.09;100.00;100693.22;7385196;19;20412;-50
2022/09/10 07:47:36;;;;;;;8.47;6.30;;;;;;;15.16;100.00;100700.28;7392229;19;20918;-57
2022/09/10 07:50:06;;;;;;;11.53;7.30;;;;;;;15.17;100.00;100709.84;7390499;19;20429;-53
2022/09/10 07:52:38;;;;;;;18.10;8.53;;;;;;;15.31;100.00;100719.66;7394284;19;20388;-58
2022/09/10 07:55:08;;;;;;;10.57;7.97;;;;;;;15.16;100.00;100730.59;7385095;19;20424;-51
2022/09/10 07:57:39;;;;;;;13.90;7.23;;;;;;;15.27;100.00;100730.84;7391906;19;20873;-61
2022/09/10 08:00:13;;;;;;;9.97;7.30;;;;;;;15.15;100.00;100729.72;7386708;19;20464;-51
2022/09/10 08:02:43;;;;;;;9.60;8.27;;;;;;;15.06;100.00;100730.41;7392510;19;20410;-56
2022/09/10 08:05:13;;;;;;;9.37;7.50;;;;;;;14.80;100.00;100733.25;7384638;19;20423;-57
2022/09/10 08:07:45;;;;;;;13.90;8.43;;;;;;;14.80;100.00;100737.56;7391746;19;20384;-53
2022/09/10 08:10:15;;;;;;;13.30;8.17;;;;;;;14.88;100.00;100730.84;7385617;19;20411;-52
2022/09/10 08:12:44;;;;;;;17.27;9.50;;;;;;;15.22;100.00;100736.81;7391562;19;20730;-55
2022/09/10 08:15:14;;;;;;;13.50;9.83;;;;;;;14.89;100.00;100737.81;7386183;19;20440;-55
2022/09/10 08:17:43;;;;;;;21.97;15.50;;;;;;;15.28;100.00;100750.78;7400089;19;20908;-51
2022/09/10 08:20:13;;;;;;;41.33;26.87;;;;;;;15.73;100.00;100752.63;7395527;19;20438;-56
2022/09/10 08:22:45;;;;;;;29.93;19.43;;;;;;;15.86;100.00;100760.66;7397936;19;20387;-53
2022/09/10 08:25:14;;;;;;;52.53;34.90;;;;;;;15.94;100.00;100779.94;7391680;19;20414;-57
2022/09/10 08:27:43;;;;;;;56.93;30.67;;;;;;;15.97;100.00;100795.63;7398253;19;20411;-54
2022/09/10 08:30:16;;;;;;;18.40;12.20;;;;;;;15.53;100.00;100817.19;7358995;19;20465;-55
2022/09/10 08:32:46;;;;;;;35.60;20.77;;;;;;;15.72;100.00;100821.09;7396713;19;20389;-52
2022/09/10 08:35:15;;;;;;;21.23;14.63;;;;;;;15.67;100.00;100830.50;7391274;19;20408;-56
2022/09/10 08:37:47;;;;;;;18.47;14.60;;;;;;;15.77;100.00;100842.00;7398056;19;20423;-53
2022/09/10 08:40:17;;;;;;;20.60;15.53;;;;;;;15.83;100.00;100846.47;7393090;19;20434;-53
2022/09/10 08:42:49;;;;;;;23.10;16.77;;;;;;;15.92;100.00;100849.28;7397505;19;20422;-51
2022/09/10 08:45:22;;;;;;;20.90;17.73;;;;;;;15.86;100.00;100859.53;7389030;19;20772;-58
2022/09/10 08:47:58;;;;;;;22.10;15.83;;;;;;;15.87;100.00;100861.28;7398102;19;20383;-54
2022/09/10 08:50:36;;;;;;;26.07;17.77;;;;;;;16.08;100.00;100876.50;7392604;19;20767;-48
2022/09/10 08:53:18;;;;;;;20.37;15.23;;;;;;;16.10;100.00;100880.00;7400624;19;20950;-51
2022/09/10 08:55:48;;;;;;;21.40;15.83;;;;;;;16.08;100.00;100886.00;7391310;19;20449;-53
2022/09/10 08:58:22;;;;;;;19.73;14.30;;;;;;;16.23;100.00;100890.66;7396898;19;20410;-49
2022/09/10 09:00:55;;;;;;;17.27;14.37;;;;;;;16.14;100.00;100901.75;7392469;19;20437;-54
2022/09/10 09:03:29;;;;;;;17.23;14.37;;;;;;;16.00;100.00;100899.75;7396563;19;20390;-55
2022/09/10 09:06:01;;;;;;;17.03;13.40;;;;;;;16.11;100.00;100906.91;7392760;19;20418;-56
2022/09/10 09:08:36;;;;;;;23.83;17.60;;;;;;;15.85;100.00;100902.84;7397054;19;20404;-52
2022/09/10 09:11:12;;;;;;;21.03;17.13;;;;;;;15.74;100.00;100900.00;7371884;19;20794;-54
2022/09/10 09:13:54;;;;;;;18.13;14.43;;;;;;;15.93;100.00;100893.56;7396307;19;20407;-52
2022/09/10 09:16:34;;;;;;;22.67;15.20;;;;;;;15.86;100.00;100896.84;7372150;19;20422;-51
2022/09/10 09:19:09;;;;;;;20.87;15.83;;;;;;;15.71;100.00;100896.47;7395720;19;20412;-52
2022/09/10 09:21:47;;;;;;;20.70;15.70;;;;;;;15.73;100.00;100902.56;7377417;19;20413;-50
2022/09/10 09:24:24;;;;;;;22.40;16.70;;;;;;;15.92;100.00;100901.31;7394953;19;20415;-51
2022/09/10 09:26:56;;;;;;;22.33;19.13;;;;;;;16.09;100.00;100900.81;7389698;19;20409;-53
2022/09/10 09:29:28;;;;;;;24.73;18.57;;;;;;;16.14;100.00;100900.03;7396215;19;20387;-53
2022/09/10 09:32:01;;;;;;;22.80;17.87;;;;;;;16.27;100.00;100892.50;7390251;19;20792;-59
2022/09/10 09:34:35;;;;;;;21.63;17.77;;;;;;;16.29;100.00;100896.88;7394372;19;20408;-54
2022/09/10 09:37:06;;;;;;;21.37;17.97;;;;;;;16.35;100.00;100893.53;7391201;19;20421;-57
2022/09/10 09:39:43;;;;;;;25.37;18.67;;;;;;;16.38;100.00;100892.72;7394985;19;20918;-51
2022/09/10 09:42:19;;;;;;;25.33;18.93;;;;;;;16.52;100.00;100887.78;7394745;19;20413;-53
2022/09/10 09:44:52;;;;;;;24.17;17.80;;;;;;;16.14;100.00;100902.66;7388935;19;20974;-57
2022/09/10 09:47:25;;;;;;;37.13;26.53;;;;;;;16.18;100.00;100898.38;7399191;19;20403;-54
2022/09/10 09:49:55;;;;;;;25.23;18.93;;;;;;;16.31;100.00;100889.13;7391070;19;20390;-54
2022/09/10 09:52:26;;;;;;;28.37;21.07;;;;;;;16.41;100.00;100893.63;7397735;19;20401;-50
2022/09/10 09:55:02;;;;;;;28.83;21.20;;;;;;;16.45;100.00;100892.88;7389210;19;20791;-52
2022/09/10 09:57:43;;;;;;;24.13;19.43;;;;;;;16.76;100.00;100887.34;7395735;19;20745;-55
2022/09/10 10:00:36;;;;;;;23.30;19.47;;;;;;;16.86;100.00;100883.19;7389421;19;20423;-52
2022/09/10 10:03:08;;;;;;;29.60;22.97;;;;;;;16.97;100.00;100896.44;7394854;19;20397;-57
2022/09/10 10:05:38;;;;;;;25.00;18.20;;;;;;;16.96;100.00;100900.75;7389226;19;20946;-53
2022/09/10 10:08:07;;;;;;;18.97;15.70;;;;;;;17.12;100.00;100909.75;7399658;19;20390;-58
2022/09/10 10:10:39;;;;;;;29.23;21.93;;;;;;;17.19;100.00;100915.06;7390809;19;20417;-60
2022/09/10 10:13:21;;;;;;;20.70;15.10;;;;;;;17.01;100.00;100929.50;7396815;19;20396;-52
2022/09/10 10:15:52;;;;;;;19.40;14.23;;;;;;;16.79;100.00;100939.53;7388768;19;20428;-57
2022/09/10 10:18:33;;;;;;;27.17;21.10;;;;;;;16.86;100.00;100945.72;7394679;19;20388;-51
2022/09/10 10:21:17;;;;;;;27.97;19.70;;;;;;;16.95;100.00;100945.00;7388421;19;20488;-55
2022/09/10 10:23:47;;;;;;;20.37;16.00;;;;;;;16.86;100.00;100936.19;7393863;19;20413;-51
2022/09/10 10:26:29;;;;;;;16.17;13.00;;;;;;;16.50;100.00;100937.22;7388152;19;20443;-53
2022/09/10 10:29:02;;;;;;;16.67;14.43;;;;;;;16.76;100.00;100934.25;7394368;19;20382;-50
2022/09/10 10:31:41;;;;;;;32.67;23.43;;;;;;;16.96;100.00;100937.22;7368260;19;20501;-56
2022/09/10 10:34:34;;;;;;;22.23;16.57;;;;;;;17.06;100.00;100937.41;7392964;19;20430;-54
2022/09/10 10:37:09;;;;;;;20.43;14.40;;;;;;;17.38;100.00;100934.50;7388946;19;20433;-51
2022/09/10 10:40:00;;;;;;;17.40;13.57;;;;;;;17.28;100.00;100938.69;7393247;19;20383;-53
2022/09/10 10:42:36;;;;;;;24.70;18.10;;;;;;;17.37;100.00;100937.94;7392105;19;20421;-54
2022/09/10 10:45:19;;;;;;;19.97;13.20;;;;;;;17.13;100.00;100945.38;7380200;19;20404;-56
2022/09/10 10:47:50;;;;;;;22.90;14.53;;;;;;;16.87;100.00;100942.28;7393082;19;20748;-52
2022/09/10 10:50:29;;;;;;;43.73;21.20;;;;;;;16.82;100.00;100950.00;7364785;19;20414;-55
2022/09/10 10:53:21;;;;;;;20.23;14.03;;;;;;;16.93;100.00;100951.94;7395651;19;20397;-53
2022/09/10 10:55:58;;;;;;;18.97;14.43;;;;;;;17.13;100.00;100944.50;7387759;19;20410;-57
2022/09/10 10:58:54;;;;;;;21.37;16.60;;;;;;;17.39;100.00;100950.16;7392916;19;20760;-55
2022/09/10 11:01:25;;;;;;;18.37;14.20;;;;;;;17.46;100.00;100942.44;7386915;19;20424;-50
2022/09/10 11:04:01;;;;;;;18.50;14.00;;;;;;;17.28;100.00;100946.50;7392188;19;20399;-51
2022/09/10 11:06:34;;;;;;;18.40;15.50;;;;;;;17.40;100.00;100938.00;7386482;19;20411;-54
2022/09/10 11:09:07;;;;;;;17.73;13.33;;;;;;;17.41;100.00;100940.66;7393518;19;20747;-55
2022/09/10 11:11:41;;;;;;;19.07;15.00;;;;;;;17.58;100.00;100940.03;7387989;19;20826;-58
2022/09/10 11:14:21;;;;;;;17.93;12.70;;;;;;;17.79;100.00;100936.88;7391593;19;20407;-51
2022/09/10 11:16:54;;;;;;;14.03;11.73;;;;;;;17.48;100.00;100945.97;7385824;19;20426;-58
2022/09/10 11:19:34;;;;;;;15.10;13.07;;;;;;;17.27;100.00;100942.13;7394454;19;20379;-51
2022/09/10 11:22:17;;;;;;;16.17;12.23;;;;;;;17.17;100.00;100935.88;7379795;19;20466;-53
2022/09/10 11:24:52;;;;;;;16.00;12.20;;;;;;;17.10;100.00;100934.91;7377795;19;20426;-53
2022/09/10 11:27:25;;;;;;;15.73;13.00;;;;;;;17.07;100.00;100944.41;7391273;19;20379;-54
2022/09/10 11:30:02;;;;;;;17.40;14.00;;;;;;;17.20;100.00;100935.06;7378725;19;20388;-54
2022/09/10 11:32:37;;;;;;;19.40;13.80;;;;;;;17.40;100.00;100923.22;7392067;19;20388;-55